HLG weather

Wheeling Ohio County Airport
Wheeling, West Virginia, United States

Public forecast

Using degrees Fahrenheit for public forecast. Weather courtesy of forecast.io.

Current aviation weather report (METAR) for Wheeling Ohio County Airport

Retrieved 2020/05/30 17:53 UTC (1 hour ago):

KHLG 301753Z 31009KT 10SM FEW033 BKN070 21/13 A3006 RMK AO2 SLP176 T02060128 10206 20122 58004

Aviation forecast (TAF) for Wheeling Ohio County Airport

Retrieved 2020/05/30 18:30 UTC (28 minutes ago):

TAF KHLG 301729Z 3018/3118 27010G17KT P6SM BKN035 FM310000 33005KT P6SM BKN250 FM311500 33009G18KT P6SM SCT250